sensor_id;sensor_type;location;lat;lon;timestamp;P1;durP1;ratioP1;P2;durP2;ratioP2
52318;SDS011;38258;51.148;14.068;2023-11-21T00:01:05;5.03;;;2.53;;
52318;SDS011;38258;51.148;14.068;2023-11-21T00:03:35;4.15;;;2.58;;
52318;SDS011;38258;51.148;14.068;2023-11-21T00:06:02;5.65;;;3.22;;
52318;SDS011;38258;51.148;14.068;2023-11-21T00:08:29;4.78;;;2.80;;
52318;SDS011;38258;51.148;14.068;2023-11-21T00:10:56;3.97;;;2.20;;
52318;SDS011;38258;51.148;14.068;2023-11-21T00:13:23;4.82;;;2.60;;
52318;SDS011;38258;51.148;14.068;2023-11-21T00:15:50;5.32;;;2.92;;
52318;SDS011;38258;51.148;14.068;2023-11-21T00:18:17;4.38;;;2.55;;
52318;SDS011;38258;51.148;14.068;2023-11-21T00:20:45;4.30;;;2.08;;
52318;SDS011;38258;51.148;14.068;2023-11-21T00:23:11;4.20;;;2.60;;
52318;SDS011;38258;51.148;14.068;2023-11-21T00:25:38;4.88;;;3.05;;
52318;SDS011;38258;51.148;14.068;2023-11-21T00:28:05;5.85;;;3.10;;
52318;SDS011;38258;51.148;14.068;2023-11-21T00:30:32;4.28;;;2.70;;
52318;SDS011;38258;51.148;14.068;2023-11-21T00:32:59;4.47;;;2.50;;
52318;SDS011;38258;51.148;14.068;2023-11-21T00:35:25;5.63;;;2.80;;
52318;SDS011;38258;51.148;14.068;2023-11-21T00:37:54;5.13;;;3.13;;
52318;SDS011;38258;51.148;14.068;2023-11-21T00:40:21;5.25;;;2.80;;
52318;SDS011;38258;51.148;14.068;2023-11-21T00:42:48;5.80;;;2.88;;
52318;SDS011;38258;51.148;14.068;2023-11-21T00:45:15;6.72;;;3.33;;
52318;SDS011;38258;51.148;14.068;2023-11-21T00:47:42;5.72;;;3.13;;
52318;SDS011;38258;51.148;14.068;2023-11-21T00:50:09;4.95;;;3.03;;
52318;SDS011;38258;51.148;14.068;2023-11-21T00:52:36;5.45;;;3.25;;
52318;SDS011;38258;51.148;14.068;2023-11-21T00:55:04;5.78;;;3.47;;
52318;SDS011;38258;51.148;14.068;2023-11-21T00:57:32;6.25;;;3.60;;
52318;SDS011;38258;51.148;14.068;2023-11-21T00:59:59;5.70;;;3.17;;
52318;SDS011;38258;51.148;14.068;2023-11-21T01:02:26;7.43;;;3.40;;
52318;SDS011;38258;51.148;14.068;2023-11-21T01:04:54;8.02;;;3.40;;
52318;SDS011;38258;51.148;14.068;2023-11-21T01:07:20;5.28;;;3.20;;
52318;SDS011;38258;51.148;14.068;2023-11-21T01:09:47;6.97;;;2.92;;
52318;SDS011;38258;51.148;14.068;2023-11-21T01:12:15;6.00;;;2.50;;
52318;SDS011;38258;51.148;14.068;2023-11-21T01:14:42;6.22;;;2.67;;
52318;SDS011;38258;51.148;14.068;2023-11-21T01:17:11;7.28;;;3.35;;
52318;SDS011;38258;51.148;14.068;2023-11-21T01:19:37;6.97;;;3.10;;
52318;SDS011;38258;51.148;14.068;2023-11-21T01:22:04;5.82;;;2.90;;
52318;SDS011;38258;51.148;14.068;2023-11-21T01:24:31;5.20;;;2.67;;
52318;SDS011;38258;51.148;14.068;2023-11-21T01:26:58;4.32;;;2.75;;
52318;SDS011;38258;51.148;14.068;2023-11-21T01:29:26;6.03;;;3.05;;
52318;SDS011;38258;51.148;14.068;2023-11-21T01:31:55;6.88;;;2.83;;
52318;SDS011;38258;51.148;14.068;2023-11-21T01:34:22;5.75;;;2.65;;
52318;SDS011;38258;51.148;14.068;2023-11-21T01:36:49;5.47;;;2.80;;
52318;SDS011;38258;51.148;14.068;2023-11-21T01:39:16;7.47;;;3.35;;
52318;SDS011;38258;51.148;14.068;2023-11-21T01:41:48;7.57;;;3.30;;
52318;SDS011;38258;51.148;14.068;2023-11-21T01:44:15;4.60;;;2.85;;
52318;SDS011;38258;51.148;14.068;2023-11-21T01:46:43;4.88;;;2.72;;
52318;SDS011;38258;51.148;14.068;2023-11-21T01:49:10;5.55;;;2.90;;
52318;SDS011;38258;51.148;14.068;2023-11-21T01:51:38;5.45;;;2.80;;
52318;SDS011;38258;51.148;14.068;2023-11-21T01:54:05;6.40;;;2.90;;
52318;SDS011;38258;51.148;14.068;2023-11-21T01:56:32;6.82;;;3.00;;
52318;SDS011;38258;51.148;14.068;2023-11-21T01:58:59;6.07;;;3.03;;
52318;SDS011;38258;51.148;14.068;2023-11-21T02:01:27;6.82;;;2.92;;
52318;SDS011;38258;51.148;14.068;2023-11-21T02:03:55;6.70;;;3.10;;
52318;SDS011;38258;51.148;14.068;2023-11-21T02:06:22;6.40;;;3.20;;
52318;SDS011;38258;51.148;14.068;2023-11-21T02:08:51;5.72;;;3.00;;
52318;SDS011;38258;51.148;14.068;2023-11-21T02:11:18;5.90;;;3.20;;
52318;SDS011;38258;51.148;14.068;2023-11-21T02:13:46;6.55;;;2.90;;
52318;SDS011;38258;51.148;14.068;2023-11-21T02:16:15;6.00;;;2.95;;
52318;SDS011;38258;51.148;14.068;2023-11-21T02:18:42;6.43;;;3.00;;
52318;SDS011;38258;51.148;14.068;2023-11-21T02:21:10;5.25;;;2.97;;
52318;SDS011;38258;51.148;14.068;2023-11-21T02:23:39;6.78;;;3.13;;
52318;SDS011;38258;51.148;14.068;2023-11-21T02:26:09;6.22;;;3.20;;
52318;SDS011;38258;51.148;14.068;2023-11-21T02:28:36;5.53;;;2.88;;
52318;SDS011;38258;51.148;14.068;2023-11-21T02:31:04;5.93;;;3.08;;
52318;SDS011;38258;51.148;14.068;2023-11-21T02:33:31;6.85;;;3.78;;
52318;SDS011;38258;51.148;14.068;2023-11-21T02:35:59;6.80;;;3.13;;
52318;SDS011;38258;51.148;14.068;2023-11-21T02:38:26;7.07;;;3.60;;
52318;SDS011;38258;51.148;14.068;2023-11-21T02:40:54;6.57;;;3.58;;
52318;SDS011;38258;51.148;14.068;2023-11-21T02:43:21;7.40;;;3.22;;
52318;SDS011;38258;51.148;14.068;2023-11-21T02:45:48;5.32;;;2.95;;
52318;SDS011;38258;51.148;14.068;2023-11-21T02:48:15;6.22;;;3.40;;
52318;SDS011;38258;51.148;14.068;2023-11-21T02:50:42;6.63;;;3.25;;
52318;SDS011;38258;51.148;14.068;2023-11-21T02:53:09;7.57;;;3.58;;
52318;SDS011;38258;51.148;14.068;2023-11-21T02:55:36;5.65;;;3.53;;
52318;SDS011;38258;51.148;14.068;2023-11-21T02:58:04;7.85;;;3.70;;
52318;SDS011;38258;51.148;14.068;2023-11-21T03:00:31;7.50;;;3.97;;
52318;SDS011;38258;51.148;14.068;2023-11-21T03:02:58;9.02;;;3.80;;
52318;SDS011;38258;51.148;14.068;2023-11-21T03:05:25;8.90;;;3.63;;
52318;SDS011;38258;51.148;14.068;2023-11-21T03:07:54;10.65;;;3.60;;
52318;SDS011;38258;51.148;14.068;2023-11-21T03:10:21;7.55;;;3.60;;
52318;SDS011;38258;51.148;14.068;2023-11-21T03:12:48;9.30;;;4.40;;
52318;SDS011;38258;51.148;14.068;2023-11-21T03:15:16;6.03;;;3.50;;
52318;SDS011;38258;51.148;14.068;2023-11-21T03:17:43;5.07;;;3.40;;
52318;SDS011;38258;51.148;14.068;2023-11-21T03:20:10;5.47;;;3.28;;
52318;SDS011;38258;51.148;14.068;2023-11-21T03:22:39;6.35;;;3.42;;
52318;SDS011;38258;51.148;14.068;2023-11-21T03:25:06;7.80;;;3.67;;
52318;SDS011;38258;51.148;14.068;2023-11-21T03:27:35;6.40;;;3.42;;
52318;SDS011;38258;51.148;14.068;2023-11-21T03:30:04;7.05;;;3.60;;
52318;SDS011;38258;51.148;14.068;2023-11-21T03:32:34;7.32;;;3.33;;
52318;SDS011;38258;51.148;14.068;2023-11-21T03:35:01;6.45;;;2.80;;
52318;SDS011;38258;51.148;14.068;2023-11-21T03:37:28;6.10;;;3.33;;
52318;SDS011;38258;51.148;14.068;2023-11-21T03:39:55;7.93;;;3.30;;
52318;SDS011;38258;51.148;14.068;2023-11-21T03:42:22;5.00;;;3.10;;
52318;SDS011;38258;51.148;14.068;2023-11-21T03:44:50;5.88;;;2.92;;
52318;SDS011;38258;51.148;14.068;2023-11-21T03:47:17;6.72;;;3.05;;
52318;SDS011;38258;51.148;14.068;2023-11-21T03:49:45;8.18;;;3.20;;
52318;SDS011;38258;51.148;14.068;2023-11-21T03:52:15;6.63;;;3.10;;
52318;SDS011;38258;51.148;14.068;2023-11-21T03:54:42;6.90;;;3.05;;
52318;SDS011;38258;51.148;14.068;2023-11-21T03:57:09;5.75;;;2.92;;
52318;SDS011;38258;51.148;14.068;2023-11-21T03:59:36;9.80;;;3.45;;
52318;SDS011;38258;51.148;14.068;2023-11-21T04:02:06;7.80;;;3.97;;
52318;SDS011;38258;51.148;14.068;2023-11-21T04:04:33;9.27;;;3.70;;
52318;SDS011;38258;51.148;14.068;2023-11-21T04:07:01;7.47;;;3.42;;
52318;SDS011;38258;51.148;14.068;2023-11-21T04:09:28;7.80;;;3.92;;
52318;SDS011;38258;51.148;14.068;2023-11-21T04:11:55;8.32;;;3.40;;
52318;SDS011;38258;51.148;14.068;2023-11-21T04:14:22;8.18;;;2.90;;
52318;SDS011;38258;51.148;14.068;2023-11-21T04:16:48;7.95;;;3.30;;
52318;SDS011;38258;51.148;14.068;2023-11-21T04:19:15;8.52;;;3.10;;
52318;SDS011;38258;51.148;14.068;2023-11-21T04:21:42;8.38;;;3.70;;
52318;SDS011;38258;51.148;14.068;2023-11-21T04:24:10;10.77;;;4.25;;
52318;SDS011;38258;51.148;14.068;2023-11-21T04:26:37;8.15;;;3.35;;
52318;SDS011;38258;51.148;14.068;2023-11-21T04:29:04;7.05;;;3.90;;
52318;SDS011;38258;51.148;14.068;2023-11-21T04:31:31;9.18;;;3.88;;
52318;SDS011;38258;51.148;14.068;2023-11-21T04:33:58;11.02;;;3.65;;
52318;SDS011;38258;51.148;14.068;2023-11-21T04:36:24;10.25;;;4.00;;
52318;SDS011;38258;51.148;14.068;2023-11-21T04:38:51;10.80;;;4.40;;
52318;SDS011;38258;51.148;14.068;2023-11-21T04:41:19;7.13;;;3.45;;
52318;SDS011;38258;51.148;14.068;2023-11-21T04:43:46;8.55;;;3.53;;
52318;SDS011;38258;51.148;14.068;2023-11-21T04:46:13;8.32;;;3.58;;
52318;SDS011;38258;51.148;14.068;2023-11-21T04:48:40;15.32;;;9.00;;
52318;SDS011;38258;51.148;14.068;2023-11-21T04:51:07;11.52;;;6.90;;
52318;SDS011;38258;51.148;14.068;2023-11-21T04:53:34;16.25;;;10.68;;
52318;SDS011;38258;51.148;14.068;2023-11-21T04:56:01;13.63;;;8.32;;
52318;SDS011;38258;51.148;14.068;2023-11-21T04:58:30;8.52;;;5.60;;
52318;SDS011;38258;51.148;14.068;2023-11-21T05:00:58;9.48;;;3.72;;
52318;SDS011;38258;51.148;14.068;2023-11-21T05:03:25;9.52;;;4.18;;
52318;SDS011;38258;51.148;14.068;2023-11-21T05:05:51;9.27;;;4.72;;
52318;SDS011;38258;51.148;14.068;2023-11-21T05:08:18;9.05;;;4.22;;
52318;SDS011;38258;51.148;14.068;2023-11-21T05:10:45;7.78;;;4.25;;
52318;SDS011;38258;51.148;14.068;2023-11-21T05:13:12;7.95;;;3.90;;
52318;SDS011;38258;51.148;14.068;2023-11-21T05:15:43;9.63;;;4.07;;
52318;SDS011;38258;51.148;14.068;2023-11-21T05:18:10;7.85;;;4.18;;
52318;SDS011;38258;51.148;14.068;2023-11-21T05:20:39;8.20;;;4.10;;
52318;SDS011;38258;51.148;14.068;2023-11-21T05:23:06;9.40;;;4.30;;
52318;SDS011;38258;51.148;14.068;2023-11-21T05:25:33;8.05;;;4.50;;
52318;SDS011;38258;51.148;14.068;2023-11-21T05:28:00;10.20;;;4.68;;
52318;SDS011;38258;51.148;14.068;2023-11-21T05:30:28;7.43;;;3.80;;
52318;SDS011;38258;51.148;14.068;2023-11-21T05:32:56;10.85;;;4.22;;
52318;SDS011;38258;51.148;14.068;2023-11-21T05:35:23;9.35;;;4.18;;
52318;SDS011;38258;51.148;14.068;2023-11-21T05:37:49;12.68;;;5.18;;
52318;SDS011;38258;51.148;14.068;2023-11-21T05:40:16;11.93;;;4.80;;
52318;SDS011;38258;51.148;14.068;2023-11-21T05:42:43;11.32;;;4.70;;
52318;SDS011;38258;51.148;14.068;2023-11-21T05:45:10;12.48;;;4.97;;
52318;SDS011;38258;51.148;14.068;2023-11-21T05:47:37;12.32;;;5.13;;
52318;SDS011;38258;51.148;14.068;2023-11-21T05:50:07;10.45;;;4.07;;
52318;SDS011;38258;51.148;14.068;2023-11-21T05:52:35;10.45;;;4.53;;
52318;SDS011;38258;51.148;14.068;2023-11-21T05:55:02;15.10;;;4.75;;
52318;SDS011;38258;51.148;14.068;2023-11-21T05:57:32;15.55;;;4.70;;
52318;SDS011;38258;51.148;14.068;2023-11-21T06:00:01;14.15;;;4.90;;
52318;SDS011;38258;51.148;14.068;2023-11-21T06:02:36;10.98;;;4.68;;
52318;SDS011;38258;51.148;14.068;2023-11-21T06:05:04;12.27;;;5.50;;
52318;SDS011;38258;51.148;14.068;2023-11-21T06:07:32;13.43;;;5.75;;
52318;SDS011;38258;51.148;14.068;2023-11-21T06:10:00;12.65;;;4.90;;
52318;SDS011;38258;51.148;14.068;2023-11-21T06:12:28;12.40;;;5.60;;
52318;SDS011;38258;51.148;14.068;2023-11-21T06:14:54;12.75;;;5.18;;
52318;SDS011;38258;51.148;14.068;2023-11-21T06:17:21;12.48;;;5.70;;
52318;SDS011;38258;51.148;14.068;2023-11-21T06:19:49;15.20;;;6.20;;
52318;SDS011;38258;51.148;14.068;2023-11-21T06:22:18;16.30;;;7.28;;
52318;SDS011;38258;51.148;14.068;2023-11-21T06:24:46;15.18;;;6.00;;
52318;SDS011;38258;51.148;14.068;2023-11-21T06:27:12;15.07;;;6.82;;
52318;SDS011;38258;51.148;14.068;2023-11-21T06:29:39;14.73;;;7.10;;
52318;SDS011;38258;51.148;14.068;2023-11-21T06:32:07;12.18;;;6.30;;
52318;SDS011;38258;51.148;14.068;2023-11-21T06:34:34;16.10;;;6.07;;
52318;SDS011;38258;51.148;14.068;2023-11-21T06:37:01;14.82;;;6.43;;
52318;SDS011;38258;51.148;14.068;2023-11-21T06:39:29;14.77;;;5.78;;
52318;SDS011;38258;51.148;14.068;2023-11-21T06:41:57;14.98;;;6.22;;
52318;SDS011;38258;51.148;14.068;2023-11-21T06:44:25;16.17;;;6.82;;
52318;SDS011;38258;51.148;14.068;2023-11-21T06:46:53;15.13;;;7.00;;
52318;SDS011;38258;51.148;14.068;2023-11-21T06:49:19;17.67;;;7.50;;
52318;SDS011;38258;51.148;14.068;2023-11-21T06:51:46;17.90;;;7.80;;
52318;SDS011;38258;51.148;14.068;2023-11-21T06:54:13;14.63;;;6.55;;
52318;SDS011;38258;51.148;14.068;2023-11-21T06:56:40;16.75;;;7.97;;
52318;SDS011;38258;51.148;14.068;2023-11-21T06:59:08;19.63;;;7.22;;
52318;SDS011;38258;51.148;14.068;2023-11-21T07:01:36;16.23;;;7.55;;
52318;SDS011;38258;51.148;14.068;2023-11-21T07:04:04;19.58;;;8.15;;
52318;SDS011;38258;51.148;14.068;2023-11-21T07:06:31;22.20;;;9.10;;
52318;SDS011;38258;51.148;14.068;2023-11-21T07:08:58;19.45;;;9.48;;
52318;SDS011;38258;51.148;14.068;2023-11-21T07:11:26;15.23;;;8.15;;
52318;SDS011;38258;51.148;14.068;2023-11-21T07:13:53;17.88;;;7.85;;
52318;SDS011;38258;51.148;14.068;2023-11-21T07:16:21;18.05;;;8.32;;
52318;SDS011;38258;51.148;14.068;2023-11-21T07:18:49;21.10;;;8.35;;
52318;SDS011;38258;51.148;14.068;2023-11-21T07:21:15;19.23;;;8.73;;
52318;SDS011;38258;51.148;14.068;2023-11-21T07:23:42;19.75;;;8.98;;
52318;SDS011;38258;51.148;14.068;2023-11-21T07:26:09;17.50;;;7.95;;
52318;SDS011;38258;51.148;14.068;2023-11-21T07:28:36;22.55;;;8.40;;
52318;SDS011;38258;51.148;14.068;2023-11-21T07:31:03;19.48;;;8.73;;
52318;SDS011;38258;51.148;14.068;2023-11-21T07:33:31;26.60;;;11.93;;
52318;SDS011;38258;51.148;14.068;2023-11-21T07:35:58;18.92;;;9.07;;
52318;SDS011;38258;51.148;14.068;2023-11-21T07:38:25;16.05;;;7.18;;
52318;SDS011;38258;51.148;14.068;2023-11-21T07:40:53;18.58;;;7.07;;
52318;SDS011;38258;51.148;14.068;2023-11-21T07:43:20;14.55;;;6.65;;
52318;SDS011;38258;51.148;14.068;2023-11-21T07:45:47;15.45;;;7.07;;
52318;SDS011;38258;51.148;14.068;2023-11-21T07:48:14;16.80;;;7.32;;
52318;SDS011;38258;51.148;14.068;2023-11-21T07:50:42;17.38;;;7.22;;
52318;SDS011;38258;51.148;14.068;2023-11-21T07:53:09;13.20;;;6.85;;
52318;SDS011;38258;51.148;14.068;2023-11-21T07:55:35;14.40;;;6.63;;
52318;SDS011;38258;51.148;14.068;2023-11-21T07:58:03;15.05;;;6.93;;
52318;SDS011;38258;51.148;14.068;2023-11-21T08:00:30;18.52;;;6.22;;
52318;SDS011;38258;51.148;14.068;2023-11-21T08:02:56;16.50;;;6.07;;
52318;SDS011;38258;51.148;14.068;2023-11-21T08:05:22;15.73;;;6.25;;
52318;SDS011;38258;51.148;14.068;2023-11-21T08:07:51;13.77;;;6.40;;
52318;SDS011;38258;51.148;14.068;2023-11-21T08:10:18;13.18;;;6.53;;
52318;SDS011;38258;51.148;14.068;2023-11-21T08:12:45;13.52;;;6.00;;
52318;SDS011;38258;51.148;14.068;2023-11-21T08:15:13;14.10;;;6.30;;
52318;SDS011;38258;51.148;14.068;2023-11-21T08:17:40;17.75;;;7.40;;
52318;SDS011;38258;51.148;14.068;2023-11-21T08:20:07;16.80;;;6.60;;
52318;SDS011;38258;51.148;14.068;2023-11-21T08:22:36;17.52;;;7.38;;
52318;SDS011;38258;51.148;14.068;2023-11-21T08:25:04;20.67;;;7.45;;
52318;SDS011;38258;51.148;14.068;2023-11-21T08:27:31;16.40;;;6.50;;
52318;SDS011;38258;51.148;14.068;2023-11-21T08:29:58;14.52;;;6.70;;
52318;SDS011;38258;51.148;14.068;2023-11-21T08:32:25;13.82;;;5.90;;
52318;SDS011;38258;51.148;14.068;2023-11-21T08:34:51;12.57;;;5.22;;
52318;SDS011;38258;51.148;14.068;2023-11-21T08:37:18;10.43;;;4.93;;
52318;SDS011;38258;51.148;14.068;2023-11-21T08:39:46;13.85;;;5.90;;
52318;SDS011;38258;51.148;14.068;2023-11-21T08:42:15;12.50;;;6.15;;
52318;SDS011;38258;51.148;14.068;2023-11-21T08:44:42;11.65;;;5.47;;
52318;SDS011;38258;51.148;14.068;2023-11-21T08:47:09;10.77;;;5.05;;
52318;SDS011;38258;51.148;14.068;2023-11-21T08:49:36;10.32;;;5.22;;
52318;SDS011;38258;51.148;14.068;2023-11-21T08:52:03;9.82;;;5.35;;
52318;SDS011;38258;51.148;14.068;2023-11-21T08:54:30;9.35;;;4.75;;
52318;SDS011;38258;51.148;14.068;2023-11-21T08:56:57;9.40;;;4.88;;
52318;SDS011;38258;51.148;14.068;2023-11-21T08:59:25;12.15;;;4.80;;
52318;SDS011;38258;51.148;14.068;2023-11-21T09:01:52;10.32;;;4.90;;
52318;SDS011;38258;51.148;14.068;2023-11-21T09:04:19;6.78;;;4.10;;
52318;SDS011;38258;51.148;14.068;2023-11-21T09:06:46;9.35;;;3.75;;
52318;SDS011;38258;51.148;14.068;2023-11-21T09:09:12;9.43;;;5.47;;
52318;SDS011;38258;51.148;14.068;2023-11-21T09:11:39;9.10;;;5.15;;
52318;SDS011;38258;51.148;14.068;2023-11-21T09:14:06;8.48;;;5.05;;
52318;SDS011;38258;51.148;14.068;2023-11-21T09:16:35;8.60;;;4.65;;
52318;SDS011;38258;51.148;14.068;2023-11-21T09:19:02;8.60;;;4.93;;
52318;SDS011;38258;51.148;14.068;2023-11-21T09:21:30;10.30;;;5.50;;
52318;SDS011;38258;51.148;14.068;2023-11-21T09:23:57;9.95;;;5.53;;
52318;SDS011;38258;51.148;14.068;2023-11-21T09:26:24;7.88;;;4.82;;
52318;SDS011;38258;51.148;14.068;2023-11-21T09:28:51;6.35;;;4.55;;
52318;SDS011;38258;51.148;14.068;2023-11-21T09:31:18;3.17;;;1.80;;
52318;SDS011;38258;51.148;14.068;2023-11-21T09:33:49;4.03;;;2.15;;
52318;SDS011;38258;51.148;14.068;2023-11-21T09:36:16;4.40;;;2.45;;
52318;SDS011;38258;51.148;14.068;2023-11-21T09:38:43;3.88;;;2.50;;
52318;SDS011;38258;51.148;14.068;2023-11-21T09:41:11;3.60;;;2.22;;
52318;SDS011;38258;51.148;14.068;2023-11-21T09:43:45;8.48;;;3.22;;
52318;SDS011;38258;51.148;14.068;2023-11-21T09:46:14;7.95;;;4.70;;
52318;SDS011;38258;51.148;14.068;2023-11-21T09:48:48;8.73;;;4.22;;
52318;SDS011;38258;51.148;14.068;2023-11-21T09:51:18;22.58;;;4.60;;
52318;SDS011;38258;51.148;14.068;2023-11-21T09:53:48;28.92;;;4.97;;
52318;SDS011;38258;51.148;14.068;2023-11-21T09:56:18;19.05;;;4.20;;
52318;SDS011;38258;51.148;14.068;2023-11-21T09:58:50;10.68;;;3.60;;
52318;SDS011;38258;51.148;14.068;2023-11-21T10:01:18;17.38;;;3.85;;
52318;SDS011;38258;51.148;14.068;2023-11-21T10:03:45;16.02;;;4.07;;
52318;SDS011;38258;51.148;14.068;2023-11-21T10:06:13;12.48;;;3.90;;
52318;SDS011;38258;51.148;14.068;2023-11-21T10:08:43;11.95;;;4.45;;
52318;SDS011;38258;51.148;14.068;2023-11-21T10:11:10;21.67;;;5.07;;
52318;SDS011;38258;51.148;14.068;2023-11-21T10:13:39;49.28;;;6.45;;
52318;SDS011;38258;51.148;14.068;2023-11-21T10:16:07;90.72;;;14.00;;
52318;SDS011;38258;51.148;14.068;2023-11-21T10:18:37;35.45;;;8.75;;
52318;SDS011;38258;51.148;14.068;2023-11-21T10:21:05;12.02;;;5.53;;
52318;SDS011;38258;51.148;14.068;2023-11-21T10:23:34;19.38;;;11.23;;
52318;SDS011;38258;51.148;14.068;2023-11-21T10:26:00;14.90;;;8.60;;
52318;SDS011;38258;51.148;14.068;2023-11-21T10:28:27;15.32;;;9.43;;
52318;SDS011;38258;51.148;14.068;2023-11-21T10:30:54;14.68;;;7.60;;
52318;SDS011;38258;51.148;14.068;2023-11-21T10:33:26;16.02;;;7.85;;
52318;SDS011;38258;51.148;14.068;2023-11-21T10:35:54;15.50;;;7.97;;
52318;SDS011;38258;51.148;14.068;2023-11-21T10:38:21;13.32;;;6.00;;
52318;SDS011;38258;51.148;14.068;2023-11-21T10:40:50;13.52;;;7.38;;
52318;SDS011;38258;51.148;14.068;2023-11-21T10:43:20;20.10;;;7.20;;
52318;SDS011;38258;51.148;14.068;2023-11-21T10:45:51;18.05;;;8.55;;
52318;SDS011;38258;51.148;14.068;2023-11-21T10:48:17;16.20;;;7.40;;
52318;SDS011;38258;51.148;14.068;2023-11-21T10:50:45;23.67;;;8.23;;
52318;SDS011;38258;51.148;14.068;2023-11-21T10:53:12;15.98;;;7.85;;
52318;SDS011;38258;51.148;14.068;2023-11-21T10:55:39;14.85;;;7.70;;
52318;SDS011;38258;51.148;14.068;2023-11-21T10:58:07;15.57;;;7.72;;
52318;SDS011;38258;51.148;14.068;2023-11-21T11:00:38;17.80;;;8.52;;
52318;SDS011;38258;51.148;14.068;2023-11-21T11:03:06;21.98;;;10.15;;
52318;SDS011;38258;51.148;14.068;2023-11-21T11:05:38;20.38;;;8.40;;
52318;SDS011;38258;51.148;14.068;2023-11-21T11:08:11;40.20;;;9.55;;
52318;SDS011;38258;51.148;14.068;2023-11-21T11:10:44;24.30;;;9.82;;
52318;SDS011;38258;51.148;14.068;2023-11-21T11:13:13;23.85;;;10.15;;
52318;SDS011;38258;51.148;14.068;2023-11-21T11:15:41;24.00;;;10.30;;
52318;SDS011;38258;51.148;14.068;2023-11-21T11:18:09;23.17;;;9.35;;
52318;SDS011;38258;51.148;14.068;2023-11-21T11:20:37;22.23;;;9.73;;
52318;SDS011;38258;51.148;14.068;2023-11-21T11:23:13;21.02;;;9.25;;
52318;SDS011;38258;51.148;14.068;2023-11-21T11:26:00;26.67;;;12.30;;
52318;SDS011;38258;51.148;14.068;2023-11-21T11:28:38;22.73;;;10.05;;
52318;SDS011;38258;51.148;14.068;2023-11-21T11:31:14;21.45;;;10.25;;
52318;SDS011;38258;51.148;14.068;2023-11-21T11:33:53;20.60;;;9.55;;
52318;SDS011;38258;51.148;14.068;2023-11-21T11:36:29;21.83;;;9.80;;
52318;SDS011;38258;51.148;14.068;2023-11-21T11:41:30;17.02;;;7.68;;
52318;SDS011;38258;51.148;14.068;2023-11-21T11:44:01;26.42;;;13.02;;
52318;SDS011;38258;51.148;14.068;2023-11-21T11:46:40;25.88;;;12.00;;
52318;SDS011;38258;51.148;14.068;2023-11-21T11:49:08;20.90;;;10.73;;
52318;SDS011;38258;51.148;14.068;2023-11-21T11:51:34;25.65;;;15.20;;
52318;SDS011;38258;51.148;14.068;2023-11-21T11:54:02;21.55;;;11.45;;
52318;SDS011;38258;51.148;14.068;2023-11-21T11:56:31;17.13;;;8.73;;
52318;SDS011;38258;51.148;14.068;2023-11-21T11:59:01;27.70;;;8.80;;
52318;SDS011;38258;51.148;14.068;2023-11-21T12:01:29;17.23;;;8.55;;
52318;SDS011;38258;51.148;14.068;2023-11-21T12:07:00;35.00;;;8.32;;
52318;SDS011;38258;51.148;14.068;2023-11-21T12:09:29;40.38;;;8.93;;
52318;SDS011;38258;51.148;14.068;2023-11-21T12:11:57;85.88;;;11.05;;
52318;SDS011;38258;51.148;14.068;2023-11-21T12:14:26;53.55;;;9.93;;
52318;SDS011;38258;51.148;14.068;2023-11-21T12:16:54;75.40;;;10.63;;
52318;SDS011;38258;51.148;14.068;2023-11-21T12:19:20;118.97;;;12.88;;
52318;SDS011;38258;51.148;14.068;2023-11-21T12:21:48;121.35;;;13.93;;
52318;SDS011;38258;51.148;14.068;2023-11-21T12:24:15;114.82;;;12.32;;
52318;SDS011;38258;51.148;14.068;2023-11-21T12:26:43;118.65;;;12.30;;
52318;SDS011;38258;51.148;14.068;2023-11-21T12:29:10;124.93;;;13.88;;
52318;SDS011;38258;51.148;14.068;2023-11-21T12:31:39;87.68;;;11.13;;
52318;SDS011;38258;51.148;14.068;2023-11-21T12:34:06;77.28;;;12.07;;
52318;SDS011;38258;51.148;14.068;2023-11-21T12:36:36;107.65;;;12.32;;
52318;SDS011;38258;51.148;14.068;2023-11-21T12:39:04;115.75;;;16.02;;
52318;SDS011;38258;51.148;14.068;2023-11-21T12:41:34;91.95;;;12.55;;
52318;SDS011;38258;51.148;14.068;2023-11-21T12:44:01;82.22;;;10.27;;
52318;SDS011;38258;51.148;14.068;2023-11-21T12:46:28;66.20;;;11.60;;
52318;SDS011;38258;51.148;14.068;2023-11-21T12:48:59;34.08;;;10.15;;
52318;SDS011;38258;51.148;14.068;2023-11-21T12:51:26;37.78;;;10.73;;
52318;SDS011;38258;51.148;14.068;2023-11-21T12:53:54;28.65;;;10.07;;
52318;SDS011;38258;51.148;14.068;2023-11-21T12:56:21;23.65;;;10.82;;
52318;SDS011;38258;51.148;14.068;2023-11-21T12:58:49;23.30;;;9.07;;
52318;SDS011;38258;51.148;14.068;2023-11-21T13:01:17;27.08;;;10.43;;
52318;SDS011;38258;51.148;14.068;2023-11-21T13:03:46;18.08;;;7.88;;
52318;SDS011;38258;51.148;14.068;2023-11-21T13:06:17;20.00;;;8.48;;
52318;SDS011;38258;51.148;14.068;2023-11-21T13:08:49;21.83;;;8.25;;
52318;SDS011;38258;51.148;14.068;2023-11-21T13:11:16;21.83;;;8.43;;
52318;SDS011;38258;51.148;14.068;2023-11-21T13:13:43;21.00;;;7.97;;
52318;SDS011;38258;51.148;14.068;2023-11-21T13:16:10;23.33;;;10.68;;
52318;SDS011;38258;51.148;14.068;2023-11-21T13:18:38;23.17;;;9.35;;
52318;SDS011;38258;51.148;14.068;2023-11-21T13:21:08;17.60;;;7.45;;
52318;SDS011;38258;51.148;14.068;2023-11-21T13:23:40;18.45;;;7.10;;
52318;SDS011;38258;51.148;14.068;2023-11-21T13:26:08;19.67;;;9.27;;
52318;SDS011;38258;51.148;14.068;2023-11-21T13:28:35;17.08;;;6.65;;
52318;SDS011;38258;51.148;14.068;2023-11-21T13:31:03;20.60;;;10.40;;
52318;SDS011;38258;51.148;14.068;2023-11-21T13:33:45;17.88;;;8.30;;
52318;SDS011;38258;51.148;14.068;2023-11-21T13:36:16;15.18;;;6.78;;
52318;SDS011;38258;51.148;14.068;2023-11-21T13:38:49;17.20;;;7.03;;
52318;SDS011;38258;51.148;14.068;2023-11-21T13:41:17;17.23;;;5.97;;
52318;SDS011;38258;51.148;14.068;2023-11-21T13:43:45;22.67;;;7.60;;
52318;SDS011;38258;51.148;14.068;2023-11-21T13:46:17;27.93;;;7.90;;
52318;SDS011;38258;51.148;14.068;2023-11-21T13:48:47;36.03;;;9.52;;
52318;SDS011;38258;51.148;14.068;2023-11-21T13:51:16;22.75;;;8.98;;
52318;SDS011;38258;51.148;14.068;2023-11-21T13:53:43;30.35;;;9.30;;
52318;SDS011;38258;51.148;14.068;2023-11-21T13:56:13;27.80;;;9.27;;
52318;SDS011;38258;51.148;14.068;2023-11-21T13:58:44;22.50;;;8.38;;
52318;SDS011;38258;51.148;14.068;2023-11-21T14:01:15;30.83;;;10.32;;
52318;SDS011;38258;51.148;14.068;2023-11-21T14:04:06;22.92;;;8.93;;
52318;SDS011;38258;51.148;14.068;2023-11-21T14:06:45;20.35;;;8.15;;
52318;SDS011;38258;51.148;14.068;2023-11-21T14:09:13;22.13;;;8.75;;
52318;SDS011;38258;51.148;14.068;2023-11-21T14:11:49;16.85;;;7.15;;
52318;SDS011;38258;51.148;14.068;2023-11-21T14:14:18;20.02;;;8.82;;
52318;SDS011;38258;51.148;14.068;2023-11-21T14:16:46;17.20;;;7.70;;
52318;SDS011;38258;51.148;14.068;2023-11-21T14:19:13;20.48;;;8.75;;
52318;SDS011;38258;51.148;14.068;2023-11-21T14:21:42;14.68;;;6.32;;
52318;SDS011;38258;51.148;14.068;2023-11-21T14:24:09;14.60;;;7.20;;
52318;SDS011;38258;51.148;14.068;2023-11-21T14:26:38;18.08;;;7.10;;
52318;SDS011;38258;51.148;14.068;2023-11-21T14:29:09;15.93;;;7.70;;
52318;SDS011;38258;51.148;14.068;2023-11-21T14:31:39;16.80;;;7.47;;
52318;SDS011;38258;51.148;14.068;2023-11-21T14:34:06;16.65;;;7.82;;
52318;SDS011;38258;51.148;14.068;2023-11-21T14:36:33;18.77;;;8.73;;